sensor_id;sensor_type;location;lat;lon;timestamp;P1;durP1;ratioP1;P2;durP2;ratioP2
13698;SDS011;6921;53.642;9.956;2022-12-24T00:00:29;30.73;;;10.40;;
13698;SDS011;6921;53.642;9.956;2022-12-24T00:02:32;31.87;;;11.00;;
13698;SDS011;6921;53.642;9.956;2022-12-24T00:04:37;26.10;;;10.30;;
13698;SDS011;6921;53.642;9.956;2022-12-24T00:06:40;25.57;;;10.23;;
13698;SDS011;6921;53.642;9.956;2022-12-24T00:08:44;31.07;;;12.17;;
13698;SDS011;6921;53.642;9.956;2022-12-24T00:10:49;24.40;;;10.20;;
13698;SDS011;6921;53.642;9.956;2022-12-24T00:12:52;26.77;;;11.10;;
13698;SDS011;6921;53.642;9.956;2022-12-24T00:14:55;24.13;;;9.97;;
13698;SDS011;6921;53.642;9.956;2022-12-24T00:16:59;27.37;;;10.83;;
13698;SDS011;6921;53.642;9.956;2022-12-24T00:19:02;29.73;;;10.63;;
13698;SDS011;6921;53.642;9.956;2022-12-24T00:21:07;28.60;;;11.23;;
13698;SDS011;6921;53.642;9.956;2022-12-24T00:23:10;26.07;;;11.20;;
13698;SDS011;6921;53.642;9.956;2022-12-24T00:25:13;27.57;;;10.77;;
13698;SDS011;6921;53.642;9.956;2022-12-24T00:27:16;23.73;;;11.20;;
13698;SDS011;6921;53.642;9.956;2022-12-24T00:29:20;26.10;;;10.80;;
13698;SDS011;6921;53.642;9.956;2022-12-24T00:31:23;25.50;;;10.57;;
13698;SDS011;6921;53.642;9.956;2022-12-24T00:33:26;32.23;;;11.37;;
13698;SDS011;6921;53.642;9.956;2022-12-24T00:35:32;29.47;;;12.00;;
13698;SDS011;6921;53.642;9.956;2022-12-24T00:37:36;33.03;;;11.50;;
13698;SDS011;6921;53.642;9.956;2022-12-24T00:39:39;30.10;;;11.23;;
13698;SDS011;6921;53.642;9.956;2022-12-24T00:41:43;26.83;;;11.87;;
13698;SDS011;6921;53.642;9.956;2022-12-24T00:43:46;30.97;;;11.07;;
13698;SDS011;6921;53.642;9.956;2022-12-24T00:45:49;21.87;;;10.23;;
13698;SDS011;6921;53.642;9.956;2022-12-24T00:47:52;26.10;;;10.73;;
13698;SDS011;6921;53.642;9.956;2022-12-24T00:49:56;32.13;;;11.70;;
13698;SDS011;6921;53.642;9.956;2022-12-24T00:51:59;28.37;;;11.93;;
13698;SDS011;6921;53.642;9.956;2022-12-24T00:54:05;34.00;;;11.57;;
13698;SDS011;6921;53.642;9.956;2022-12-24T00:56:08;30.70;;;11.87;;
13698;SDS011;6921;53.642;9.956;2022-12-24T00:58:12;30.27;;;12.23;;
13698;SDS011;6921;53.642;9.956;2022-12-24T01:00:15;26.00;;;11.83;;
13698;SDS011;6921;53.642;9.956;2022-12-24T01:02:18;32.77;;;11.60;;
13698;SDS011;6921;53.642;9.956;2022-12-24T01:04:22;30.07;;;11.77;;
13698;SDS011;6921;53.642;9.956;2022-12-24T01:06:43;30.77;;;11.73;;
13698;SDS011;6921;53.642;9.956;2022-12-24T01:08:48;37.27;;;10.60;;
13698;SDS011;6921;53.642;9.956;2022-12-24T01:10:53;27.93;;;11.80;;
13698;SDS011;6921;53.642;9.956;2022-12-24T01:12:59;26.93;;;11.87;;
13698;SDS011;6921;53.642;9.956;2022-12-24T01:15:03;29.80;;;11.80;;
13698;SDS011;6921;53.642;9.956;2022-12-24T01:17:06;31.17;;;11.10;;
13698;SDS011;6921;53.642;9.956;2022-12-24T01:19:10;32.27;;;12.07;;
13698;SDS011;6921;53.642;9.956;2022-12-24T01:21:13;33.20;;;11.83;;
13698;SDS011;6921;53.642;9.956;2022-12-24T01:23:17;34.27;;;11.53;;
13698;SDS011;6921;53.642;9.956;2022-12-24T01:25:20;32.93;;;12.53;;
13698;SDS011;6921;53.642;9.956;2022-12-24T01:27:24;29.63;;;11.87;;
13698;SDS011;6921;53.642;9.956;2022-12-24T01:29:28;36.17;;;13.13;;
13698;SDS011;6921;53.642;9.956;2022-12-24T01:31:31;31.63;;;11.43;;
13698;SDS011;6921;53.642;9.956;2022-12-24T01:33:34;30.40;;;12.30;;
13698;SDS011;6921;53.642;9.956;2022-12-24T01:35:38;30.47;;;10.87;;
13698;SDS011;6921;53.642;9.956;2022-12-24T01:37:41;33.13;;;12.23;;
13698;SDS011;6921;53.642;9.956;2022-12-24T01:39:45;35.93;;;12.80;;
13698;SDS011;6921;53.642;9.956;2022-12-24T01:41:48;31.30;;;11.50;;
13698;SDS011;6921;53.642;9.956;2022-12-24T01:44:17;28.30;;;11.67;;
13698;SDS011;6921;53.642;9.956;2022-12-24T01:46:21;31.20;;;11.90;;
13698;SDS011;6921;53.642;9.956;2022-12-24T01:48:30;33.70;;;11.50;;
13698;SDS011;6921;53.642;9.956;2022-12-24T01:50:33;37.33;;;13.60;;
13698;SDS011;6921;53.642;9.956;2022-12-24T01:52:37;41.13;;;12.37;;
13698;SDS011;6921;53.642;9.956;2022-12-24T01:54:41;36.27;;;12.80;;
13698;SDS011;6921;53.642;9.956;2022-12-24T01:56:46;39.50;;;12.47;;
13698;SDS011;6921;53.642;9.956;2022-12-24T01:58:51;36.93;;;12.83;;
13698;SDS011;6921;53.642;9.956;2022-12-24T02:00:57;36.97;;;12.53;;
13698;SDS011;6921;53.642;9.956;2022-12-24T02:03:00;34.17;;;12.10;;
13698;SDS011;6921;53.642;9.956;2022-12-24T02:05:04;32.47;;;11.70;;
13698;SDS011;6921;53.642;9.956;2022-12-24T02:07:08;31.90;;;13.17;;
13698;SDS011;6921;53.642;9.956;2022-12-24T02:09:11;32.97;;;11.77;;
13698;SDS011;6921;53.642;9.956;2022-12-24T02:11:16;30.03;;;11.67;;
13698;SDS011;6921;53.642;9.956;2022-12-24T02:13:20;31.33;;;12.03;;
13698;SDS011;6921;53.642;9.956;2022-12-24T02:15:23;28.73;;;11.70;;
13698;SDS011;6921;53.642;9.956;2022-12-24T02:17:28;37.57;;;13.37;;
13698;SDS011;6921;53.642;9.956;2022-12-24T02:19:50;28.40;;;12.23;;
13698;SDS011;6921;53.642;9.956;2022-12-24T02:22:01;31.97;;;12.47;;
13698;SDS011;6921;53.642;9.956;2022-12-24T02:24:15;31.77;;;12.83;;
13698;SDS011;6921;53.642;9.956;2022-12-24T02:26:26;29.57;;;11.97;;
13698;SDS011;6921;53.642;9.956;2022-12-24T02:28:37;30.53;;;11.80;;
13698;SDS011;6921;53.642;9.956;2022-12-24T02:30:44;24.93;;;11.37;;
13698;SDS011;6921;53.642;9.956;2022-12-24T02:32:56;30.53;;;12.70;;
13698;SDS011;6921;53.642;9.956;2022-12-24T02:35:01;29.37;;;12.03;;
13698;SDS011;6921;53.642;9.956;2022-12-24T02:37:06;30.80;;;12.10;;
13698;SDS011;6921;53.642;9.956;2022-12-24T02:39:13;27.47;;;11.80;;
13698;SDS011;6921;53.642;9.956;2022-12-24T02:41:20;32.27;;;12.40;;
13698;SDS011;6921;53.642;9.956;2022-12-24T02:43:27;30.80;;;12.13;;
13698;SDS011;6921;53.642;9.956;2022-12-24T02:45:32;24.17;;;10.97;;
13698;SDS011;6921;53.642;9.956;2022-12-24T02:47:37;26.57;;;12.03;;
13698;SDS011;6921;53.642;9.956;2022-12-24T02:49:42;30.40;;;11.93;;
13698;SDS011;6921;53.642;9.956;2022-12-24T02:51:45;28.90;;;11.57;;
13698;SDS011;6921;53.642;9.956;2022-12-24T02:53:49;32.20;;;12.87;;
13698;SDS011;6921;53.642;9.956;2022-12-24T02:55:55;27.10;;;11.93;;
13698;SDS011;6921;53.642;9.956;2022-12-24T02:58:07;34.73;;;11.73;;
13698;SDS011;6921;53.642;9.956;2022-12-24T03:00:12;32.83;;;13.20;;
13698;SDS011;6921;53.642;9.956;2022-12-24T03:02:19;28.43;;;11.70;;
13698;SDS011;6921;53.642;9.956;2022-12-24T03:04:30;26.43;;;11.73;;
13698;SDS011;6921;53.642;9.956;2022-12-24T03:06:42;27.57;;;12.60;;
13698;SDS011;6921;53.642;9.956;2022-12-24T03:08:48;29.37;;;11.00;;
13698;SDS011;6921;53.642;9.956;2022-12-24T03:10:54;29.50;;;11.37;;
13698;SDS011;6921;53.642;9.956;2022-12-24T03:13:00;36.67;;;13.40;;
13698;SDS011;6921;53.642;9.956;2022-12-24T03:15:09;28.27;;;12.30;;
13698;SDS011;6921;53.642;9.956;2022-12-24T03:17:13;28.30;;;11.90;;
13698;SDS011;6921;53.642;9.956;2022-12-24T03:19:17;28.63;;;12.23;;
13698;SDS011;6921;53.642;9.956;2022-12-24T03:21:22;29.70;;;11.83;;
13698;SDS011;6921;53.642;9.956;2022-12-24T03:23:26;29.37;;;12.70;;
13698;SDS011;6921;53.642;9.956;2022-12-24T03:25:30;32.60;;;12.87;;
13698;SDS011;6921;53.642;9.956;2022-12-24T03:27:34;31.60;;;12.30;;
13698;SDS011;6921;53.642;9.956;2022-12-24T03:29:38;29.40;;;12.33;;
13698;SDS011;6921;53.642;9.956;2022-12-24T03:31:42;28.90;;;12.07;;
13698;SDS011;6921;53.642;9.956;2022-12-24T03:33:45;24.83;;;12.37;;
13698;SDS011;6921;53.642;9.956;2022-12-24T03:35:49;32.43;;;11.47;;
13698;SDS011;6921;53.642;9.956;2022-12-24T03:37:53;29.20;;;11.40;;
13698;SDS011;6921;53.642;9.956;2022-12-24T03:39:56;29.83;;;11.57;;
13698;SDS011;6921;53.642;9.956;2022-12-24T03:42:00;29.00;;;11.73;;
13698;SDS011;6921;53.642;9.956;2022-12-24T03:44:03;26.23;;;12.10;;
13698;SDS011;6921;53.642;9.956;2022-12-24T03:46:06;24.93;;;11.13;;
13698;SDS011;6921;53.642;9.956;2022-12-24T03:48:10;22.87;;;10.87;;
13698;SDS011;6921;53.642;9.956;2022-12-24T03:50:13;23.80;;;10.77;;
13698;SDS011;6921;53.642;9.956;2022-12-24T03:52:16;29.93;;;11.40;;
13698;SDS011;6921;53.642;9.956;2022-12-24T03:54:21;28.17;;;11.23;;
13698;SDS011;6921;53.642;9.956;2022-12-24T03:56:24;28.87;;;10.70;;
13698;SDS011;6921;53.642;9.956;2022-12-24T03:58:28;25.10;;;10.60;;
13698;SDS011;6921;53.642;9.956;2022-12-24T04:00:31;22.73;;;10.50;;
13698;SDS011;6921;53.642;9.956;2022-12-24T04:02:34;19.60;;;9.87;;
13698;SDS011;6921;53.642;9.956;2022-12-24T04:04:37;21.87;;;10.80;;
13698;SDS011;6921;53.642;9.956;2022-12-24T04:06:41;23.73;;;10.97;;
13698;SDS011;6921;53.642;9.956;2022-12-24T04:08:44;20.57;;;9.80;;
13698;SDS011;6921;53.642;9.956;2022-12-24T04:10:49;27.93;;;11.13;;
13698;SDS011;6921;53.642;9.956;2022-12-24T04:12:52;26.17;;;10.70;;
13698;SDS011;6921;53.642;9.956;2022-12-24T04:14:55;24.07;;;10.63;;
13698;SDS011;6921;53.642;9.956;2022-12-24T04:16:58;25.10;;;10.23;;
13698;SDS011;6921;53.642;9.956;2022-12-24T04:19:02;22.93;;;9.40;;
13698;SDS011;6921;53.642;9.956;2022-12-24T04:21:05;20.97;;;9.90;;
13698;SDS011;6921;53.642;9.956;2022-12-24T04:23:09;21.67;;;9.60;;
13698;SDS011;6921;53.642;9.956;2022-12-24T04:25:12;22.33;;;9.63;;
13698;SDS011;6921;53.642;9.956;2022-12-24T04:27:17;24.13;;;9.73;;
13698;SDS011;6921;53.642;9.956;2022-12-24T04:29:22;22.07;;;10.00;;
13698;SDS011;6921;53.642;9.956;2022-12-24T04:31:25;21.23;;;9.73;;
13698;SDS011;6921;53.642;9.956;2022-12-24T04:33:28;20.53;;;10.20;;
13698;SDS011;6921;53.642;9.956;2022-12-24T04:35:32;22.50;;;10.37;;
13698;SDS011;6921;53.642;9.956;2022-12-24T04:37:35;21.30;;;9.57;;
13698;SDS011;6921;53.642;9.956;2022-12-24T04:39:39;19.80;;;9.27;;
13698;SDS011;6921;53.642;9.956;2022-12-24T04:41:42;20.20;;;9.00;;
13698;SDS011;6921;53.642;9.956;2022-12-24T04:43:47;24.17;;;10.13;;
13698;SDS011;6921;53.642;9.956;2022-12-24T04:45:50;23.40;;;9.37;;
13698;SDS011;6921;53.642;9.956;2022-12-24T04:47:53;20.47;;;9.40;;
13698;SDS011;6921;53.642;9.956;2022-12-24T04:49:56;22.63;;;9.67;;
13698;SDS011;6921;53.642;9.956;2022-12-24T04:52:01;18.70;;;8.77;;
13698;SDS011;6921;53.642;9.956;2022-12-24T04:54:05;20.80;;;8.53;;
13698;SDS011;6921;53.642;9.956;2022-12-24T04:56:08;19.33;;;9.83;;
13698;SDS011;6921;53.642;9.956;2022-12-24T04:58:14;23.37;;;9.10;;
13698;SDS011;6921;53.642;9.956;2022-12-24T05:00:19;26.30;;;9.87;;
13698;SDS011;6921;53.642;9.956;2022-12-24T05:02:22;21.73;;;9.43;;
13698;SDS011;6921;53.642;9.956;2022-12-24T05:04:25;21.77;;;8.63;;
13698;SDS011;6921;53.642;9.956;2022-12-24T05:06:29;23.70;;;9.10;;
13698;SDS011;6921;53.642;9.956;2022-12-24T05:08:33;21.33;;;9.37;;
13698;SDS011;6921;53.642;9.956;2022-12-24T05:10:36;21.00;;;9.03;;
13698;SDS011;6921;53.642;9.956;2022-12-24T05:12:39;22.90;;;9.33;;
13698;SDS011;6921;53.642;9.956;2022-12-24T05:14:43;18.67;;;8.57;;
13698;SDS011;6921;53.642;9.956;2022-12-24T05:16:47;20.53;;;8.70;;
13698;SDS011;6921;53.642;9.956;2022-12-24T05:18:52;20.90;;;8.43;;
13698;SDS011;6921;53.642;9.956;2022-12-24T05:20:55;17.67;;;9.10;;
13698;SDS011;6921;53.642;9.956;2022-12-24T05:22:58;19.50;;;9.00;;
13698;SDS011;6921;53.642;9.956;2022-12-24T05:25:19;17.77;;;9.00;;
13698;SDS011;6921;53.642;9.956;2022-12-24T05:27:40;20.83;;;9.33;;
13698;SDS011;6921;53.642;9.956;2022-12-24T05:29:49;20.33;;;9.30;;
13698;SDS011;6921;53.642;9.956;2022-12-24T05:31:53;19.87;;;9.07;;
13698;SDS011;6921;53.642;9.956;2022-12-24T05:33:57;18.60;;;9.43;;
13698;SDS011;6921;53.642;9.956;2022-12-24T05:36:00;23.33;;;9.73;;
13698;SDS011;6921;53.642;9.956;2022-12-24T05:38:03;22.67;;;8.97;;
13698;SDS011;6921;53.642;9.956;2022-12-24T05:40:07;21.83;;;9.00;;
13698;SDS011;6921;53.642;9.956;2022-12-24T05:42:10;21.60;;;9.93;;
13698;SDS011;6921;53.642;9.956;2022-12-24T05:44:14;22.77;;;10.07;;
13698;SDS011;6921;53.642;9.956;2022-12-24T05:46:18;22.27;;;9.17;;
13698;SDS011;6921;53.642;9.956;2022-12-24T05:48:22;17.37;;;8.87;;
13698;SDS011;6921;53.642;9.956;2022-12-24T05:50:26;27.67;;;9.93;;
13698;SDS011;6921;53.642;9.956;2022-12-24T05:52:29;18.70;;;9.17;;
13698;SDS011;6921;53.642;9.956;2022-12-24T05:54:32;25.13;;;9.60;;
13698;SDS011;6921;53.642;9.956;2022-12-24T05:56:35;20.67;;;9.60;;
13698;SDS011;6921;53.642;9.956;2022-12-24T05:58:39;21.50;;;9.87;;
13698;SDS011;6921;53.642;9.956;2022-12-24T06:00:42;22.77;;;9.37;;
13698;SDS011;6921;53.642;9.956;2022-12-24T06:02:45;26.00;;;10.30;;
13698;SDS011;6921;53.642;9.956;2022-12-24T06:04:50;22.03;;;9.37;;
13698;SDS011;6921;53.642;9.956;2022-12-24T06:06:53;24.40;;;9.63;;
13698;SDS011;6921;53.642;9.956;2022-12-24T06:08:57;27.00;;;9.63;;
13698;SDS011;6921;53.642;9.956;2022-12-24T06:11:01;25.10;;;9.10;;
13698;SDS011;6921;53.642;9.956;2022-12-24T06:13:04;23.20;;;9.47;;
13698;SDS011;6921;53.642;9.956;2022-12-24T06:15:08;24.10;;;9.87;;
13698;SDS011;6921;53.642;9.956;2022-12-24T06:17:11;20.00;;;9.30;;
13698;SDS011;6921;53.642;9.956;2022-12-24T06:19:14;22.03;;;9.50;;
13698;SDS011;6921;53.642;9.956;2022-12-24T06:21:19;19.97;;;9.23;;
13698;SDS011;6921;53.642;9.956;2022-12-24T06:23:23;21.13;;;9.27;;
13698;SDS011;6921;53.642;9.956;2022-12-24T06:25:26;21.00;;;9.03;;
13698;SDS011;6921;53.642;9.956;2022-12-24T06:27:29;20.80;;;9.60;;
13698;SDS011;6921;53.642;9.956;2022-12-24T06:29:32;19.83;;;9.37;;
13698;SDS011;6921;53.642;9.956;2022-12-24T06:31:36;19.30;;;9.20;;
13698;SDS011;6921;53.642;9.956;2022-12-24T06:33:39;23.67;;;9.30;;
13698;SDS011;6921;53.642;9.956;2022-12-24T06:35:43;23.23;;;9.70;;
13698;SDS011;6921;53.642;9.956;2022-12-24T06:37:48;21.40;;;8.70;;
13698;SDS011;6921;53.642;9.956;2022-12-24T06:39:51;19.90;;;9.53;;
13698;SDS011;6921;53.642;9.956;2022-12-24T06:41:54;20.47;;;8.83;;
13698;SDS011;6921;53.642;9.956;2022-12-24T06:43:58;21.53;;;8.77;;
13698;SDS011;6921;53.642;9.956;2022-12-24T06:46:01;23.33;;;9.07;;
13698;SDS011;6921;53.642;9.956;2022-12-24T06:48:05;21.67;;;8.90;;
13698;SDS011;6921;53.642;9.956;2022-12-24T06:50:08;23.43;;;8.90;;
13698;SDS011;6921;53.642;9.956;2022-12-24T06:52:13;18.77;;;8.90;;
13698;SDS011;6921;53.642;9.956;2022-12-24T06:54:17;22.03;;;8.70;;
13698;SDS011;6921;53.642;9.956;2022-12-24T06:56:21;20.20;;;8.60;;
13698;SDS011;6921;53.642;9.956;2022-12-24T06:58:24;19.77;;;8.33;;
13698;SDS011;6921;53.642;9.956;2022-12-24T07:00:27;19.60;;;8.13;;
13698;SDS011;6921;53.642;9.956;2022-12-24T07:02:31;19.37;;;8.40;;
13698;SDS011;6921;53.642;9.956;2022-12-24T07:04:34;20.13;;;8.63;;
13698;SDS011;6921;53.642;9.956;2022-12-24T07:06:37;20.27;;;8.93;;
13698;SDS011;6921;53.642;9.956;2022-12-24T07:08:42;20.53;;;8.27;;
13698;SDS011;6921;53.642;9.956;2022-12-24T07:10:48;14.97;;;7.53;;
13698;SDS011;6921;53.642;9.956;2022-12-24T07:12:54;16.57;;;7.37;;
13698;SDS011;6921;53.642;9.956;2022-12-24T07:14:57;21.80;;;8.40;;
13698;SDS011;6921;53.642;9.956;2022-12-24T07:17:01;15.87;;;7.23;;
13698;SDS011;6921;53.642;9.956;2022-12-24T07:19:04;16.27;;;7.50;;
13698;SDS011;6921;53.642;9.956;2022-12-24T07:21:07;20.03;;;7.53;;
13698;SDS011;6921;53.642;9.956;2022-12-24T07:23:11;16.93;;;6.60;;
13698;SDS011;6921;53.642;9.956;2022-12-24T07:25:14;14.80;;;7.30;;
13698;SDS011;6921;53.642;9.956;2022-12-24T07:27:19;16.43;;;7.73;;
13698;SDS011;6921;53.642;9.956;2022-12-24T07:29:22;16.07;;;8.10;;
13698;SDS011;6921;53.642;9.956;2022-12-24T07:31:25;18.80;;;7.63;;
13698;SDS011;6921;53.642;9.956;2022-12-24T07:33:28;15.37;;;7.40;;
13698;SDS011;6921;53.642;9.956;2022-12-24T07:35:32;15.43;;;7.30;;
13698;SDS011;6921;53.642;9.956;2022-12-24T07:37:35;17.20;;;7.27;;
13698;SDS011;6921;53.642;9.956;2022-12-24T07:39:38;16.23;;;7.53;;
13698;SDS011;6921;53.642;9.956;2022-12-24T07:41:41;14.47;;;7.10;;
13698;SDS011;6921;53.642;9.956;2022-12-24T07:43:46;12.80;;;6.27;;
13698;SDS011;6921;53.642;9.956;2022-12-24T07:45:49;13.93;;;7.70;;
13698;SDS011;6921;53.642;9.956;2022-12-24T07:47:53;16.23;;;7.90;;
13698;SDS011;6921;53.642;9.956;2022-12-24T07:49:56;13.67;;;7.43;;
13698;SDS011;6921;53.642;9.956;2022-12-24T07:51:59;12.53;;;6.57;;
13698;SDS011;6921;53.642;9.956;2022-12-24T07:54:02;15.30;;;7.20;;
13698;SDS011;6921;53.642;9.956;2022-12-24T07:56:06;15.40;;;6.97;;
13698;SDS011;6921;53.642;9.956;2022-12-24T07:58:13;14.93;;;7.40;;
13698;SDS011;6921;53.642;9.956;2022-12-24T08:00:18;12.60;;;6.50;;
13698;SDS011;6921;53.642;9.956;2022-12-24T08:02:21;15.20;;;7.30;;
13698;SDS011;6921;53.642;9.956;2022-12-24T08:04:25;18.20;;;7.43;;
13698;SDS011;6921;53.642;9.956;2022-12-24T08:06:28;13.63;;;7.13;;
13698;SDS011;6921;53.642;9.956;2022-12-24T08:08:31;14.10;;;7.23;;
13698;SDS011;6921;53.642;9.956;2022-12-24T08:10:37;14.73;;;6.60;;
13698;SDS011;6921;53.642;9.956;2022-12-24T08:12:40;11.47;;;6.27;;
13698;SDS011;6921;53.642;9.956;2022-12-24T08:14:43;14.60;;;6.83;;
13698;SDS011;6921;53.642;9.956;2022-12-24T08:16:48;12.83;;;7.00;;
13698;SDS011;6921;53.642;9.956;2022-12-24T08:18:51;13.87;;;6.67;;
13698;SDS011;6921;53.642;9.956;2022-12-24T08:20:54;13.60;;;6.70;;
13698;SDS011;6921;53.642;9.956;2022-12-24T08:22:57;16.00;;;6.93;;
13698;SDS011;6921;53.642;9.956;2022-12-24T08:25:01;14.70;;;6.80;;
13698;SDS011;6921;53.642;9.956;2022-12-24T08:27:04;12.43;;;6.80;;
13698;SDS011;6921;53.642;9.956;2022-12-24T08:29:07;11.97;;;6.67;;
13698;SDS011;6921;53.642;9.956;2022-12-24T08:31:12;13.50;;;7.53;;
13698;SDS011;6921;53.642;9.956;2022-12-24T08:33:17;14.13;;;7.20;;
13698;SDS011;6921;53.642;9.956;2022-12-24T08:35:20;10.43;;;6.67;;
13698;SDS011;6921;53.642;9.956;2022-12-24T08:37:24;11.30;;;6.17;;
13698;SDS011;6921;53.642;9.956;2022-12-24T08:39:27;10.67;;;5.93;;
13698;SDS011;6921;53.642;9.956;2022-12-24T08:41:30;9.80;;;5.93;;
13698;SDS011;6921;53.642;9.956;2022-12-24T08:43:34;12.07;;;6.33;;
13698;SDS011;6921;53.642;9.956;2022-12-24T08:45:37;10.10;;;6.00;;
13698;SDS011;6921;53.642;9.956;2022-12-24T08:47:41;10.13;;;6.03;;
13698;SDS011;6921;53.642;9.956;2022-12-24T08:49:46;13.17;;;6.30;;
13698;SDS011;6921;53.642;9.956;2022-12-24T08:51:49;13.67;;;6.07;;
13698;SDS011;6921;53.642;9.956;2022-12-24T08:53:52;11.27;;;6.00;;
13698;SDS011;6921;53.642;9.956;2022-12-24T08:55:59;11.77;;;6.47;;
13698;SDS011;6921;53.642;9.956;2022-12-24T08:58:03;10.70;;;5.73;;
13698;SDS011;6921;53.642;9.956;2022-12-24T09:00:07;11.37;;;6.13;;
13698;SDS011;6921;53.642;9.956;2022-12-24T09:02:10;11.40;;;6.50;;
13698;SDS011;6921;53.642;9.956;2022-12-24T09:04:14;11.67;;;6.03;;
13698;SDS011;6921;53.642;9.956;2022-12-24T09:06:19;10.70;;;6.13;;
13698;SDS011;6921;53.642;9.956;2022-12-24T09:08:22;13.67;;;6.47;;
13698;SDS011;6921;53.642;9.956;2022-12-24T09:10:25;10.97;;;6.57;;
13698;SDS011;6921;53.642;9.956;2022-12-24T09:12:28;11.37;;;6.63;;
13698;SDS011;6921;53.642;9.956;2022-12-24T09:14:32;13.10;;;7.17;;
13698;SDS011;6921;53.642;9.956;2022-12-24T09:16:35;12.40;;;6.57;;
13698;SDS011;6921;53.642;9.956;2022-12-24T09:18:39;11.00;;;6.57;;
13698;SDS011;6921;53.642;9.956;2022-12-24T09:20:42;11.97;;;6.80;;
13698;SDS011;6921;53.642;9.956;2022-12-24T09:22:48;12.57;;;6.43;;
13698;SDS011;6921;53.642;9.956;2022-12-24T09:24:52;13.00;;;7.47;;
13698;SDS011;6921;53.642;9.956;2022-12-24T09:26:56;13.50;;;6.97;;
13698;SDS011;6921;53.642;9.956;2022-12-24T09:28:59;14.23;;;6.97;;
13698;SDS011;6921;53.642;9.956;2022-12-24T09:31:03;12.53;;;6.63;;
13698;SDS011;6921;53.642;9.956;2022-12-24T09:33:06;12.90;;;6.53;;
13698;SDS011;6921;53.642;9.956;2022-12-24T09:35:09;11.03;;;6.60;;
13698;SDS011;6921;53.642;9.956;2022-12-24T09:37:13;11.53;;;6.57;;
13698;SDS011;6921;53.642;9.956;2022-12-24T09:39:17;14.30;;;7.23;;
13698;SDS011;6921;53.642;9.956;2022-12-24T09:41:25;13.30;;;7.33;;
13698;SDS011;6921;53.642;9.956;2022-12-24T09:43:30;16.67;;;8.57;;
13698;SDS011;6921;53.642;9.956;2022-12-24T09:45:36;15.60;;;8.87;;
13698;SDS011;6921;53.642;9.956;2022-12-24T09:47:40;16.43;;;8.33;;
13698;SDS011;6921;53.642;9.956;2022-12-24T09:49:46;16.77;;;7.90;;
13698;SDS011;6921;53.642;9.956;2022-12-24T09:51:50;13.50;;;7.97;;
13698;SDS011;6921;53.642;9.956;2022-12-24T09:53:55;13.90;;;7.73;;
13698;SDS011;6921;53.642;9.956;2022-12-24T09:56:01;13.93;;;8.23;;
13698;SDS011;6921;53.642;9.956;2022-12-24T09:58:06;14.80;;;8.20;;
13698;SDS011;6921;53.642;9.956;2022-12-24T10:00:15;15.47;;;8.93;;
13698;SDS011;6921;53.642;9.956;2022-12-24T10:02:20;15.37;;;9.40;;
13698;SDS011;6921;53.642;9.956;2022-12-24T10:04:25;11.60;;;8.00;;
13698;SDS011;6921;53.642;9.956;2022-12-24T10:06:32;13.13;;;8.00;;
13698;SDS011;6921;53.642;9.956;2022-12-24T10:08:41;13.33;;;7.90;;
13698;SDS011;6921;53.642;9.956;2022-12-24T10:10:49;13.03;;;8.53;;
13698;SDS011;6921;53.642;9.956;2022-12-24T10:12:55;17.07;;;9.57;;
13698;SDS011;6921;53.642;9.956;2022-12-24T10:15:07;14.57;;;8.67;;
13698;SDS011;6921;53.642;9.956;2022-12-24T10:17:16;14.23;;;7.50;;
13698;SDS011;6921;53.642;9.956;2022-12-24T10:19:24;13.27;;;7.87;;
13698;SDS011;6921;53.642;9.956;2022-12-24T10:21:34;14.83;;;8.30;;
13698;SDS011;6921;53.642;9.956;2022-12-24T10:23:40;12.97;;;7.80;;
13698;SDS011;6921;53.642;9.956;2022-12-24T10:25:45;16.43;;;8.53;;
13698;SDS011;6921;53.642;9.956;2022-12-24T10:27:50;13.50;;;8.33;;
13698;SDS011;6921;53.642;9.956;2022-12-24T10:29:57;13.47;;;8.43;;
13698;SDS011;6921;53.642;9.956;2022-12-24T10:32:10;15.33;;;8.97;;
13698;SDS011;6921;53.642;9.956;2022-12-24T10:34:18;16.50;;;9.63;;
13698;SDS011;6921;53.642;9.956;2022-12-24T10:36:23;17.37;;;9.33;;
13698;SDS011;6921;53.642;9.956;2022-12-24T10:38:27;15.63;;;9.57;;
13698;SDS011;6921;53.642;9.956;2022-12-24T10:40:33;15.30;;;9.67;;
13698;SDS011;6921;53.642;9.956;2022-12-24T10:42:38;13.87;;;8.73;;
13698;SDS011;6921;53.642;9.956;2022-12-24T10:44:51;12.70;;;8.03;;
13698;SDS011;6921;53.642;9.956;2022-12-24T10:46:58;14.00;;;8.07;;
13698;SDS011;6921;53.642;9.956;2022-12-24T10:49:02;15.37;;;9.37;;
13698;SDS011;6921;53.642;9.956;2022-12-24T10:51:09;15.40;;;9.50;;
13698;SDS011;6921;53.642;9.956;2022-12-24T10:53:16;17.73;;;9.80;;
13698;SDS011;6921;53.642;9.956;2022-12-24T10:55:21;16.67;;;8.67;;
13698;SDS011;6921;53.642;9.956;2022-12-24T10:57:25;14.53;;;9.50;;
13698;SDS011;6921;53.642;9.956;2022-12-24T10:59:29;20.53;;;12.37;;
13698;SDS011;6921;53.642;9.956;2022-12-24T11:01:43;18.17;;;11.73;;
13698;SDS011;6921;53.642;9.956;2022-12-24T11:03:59;17.10;;;10.77;;
13698;SDS011;6921;53.642;9.956;2022-12-24T11:06:05;18.63;;;11.00;;
13698;SDS011;6921;53.642;9.956;2022-12-24T11:08:13;17.63;;;11.07;;
13698;SDS011;6921;53.642;9.956;2022-12-24T11:10:22;15.77;;;10.70;;
13698;SDS011;6921;53.642;9.956;2022-12-24T11:12:26;17.73;;;10.63;;
13698;SDS011;6921;53.642;9.956;2022-12-24T11:14:32;19.00;;;10.83;;
13698;SDS011;6921;53.642;9.956;2022-12-24T11:16:35;19.60;;;10.97;;
13698;SDS011;6921;53.642;9.956;2022-12-24T11:18:43;18.93;;;10.33;;
13698;SDS011;6921;53.642;9.956;2022-12-24T11:20:53;18.30;;;11.23;;
13698;SDS011;6921;53.642;9.956;2022-12-24T11:22:59;17.23;;;10.87;;
13698;SDS011;6921;53.642;9.956;2022-12-24T11:25:04;18.57;;;10.70;;
13698;SDS011;6921;53.642;9.956;2022-12-24T11:27:22;17.47;;;10.97;;
13698;SDS011;6921;53.642;9.956;2022-12-24T11:29:26;18.57;;;11.63;;
13698;SDS011;6921;53.642;9.956;2022-12-24T11:31:30;22.47;;;12.50;;
13698;SDS011;6921;53.642;9.956;2022-12-24T11:33:44;20.63;;;11.60;;
13698;SDS011;6921;53.642;9.956;2022-12-24T11:38:10;18.53;;;11.67;;
13698;SDS011;6921;53.642;9.956;2022-12-24T11:40:18;20.27;;;12.47;;
13698;SDS011;6921;53.642;9.956;2022-12-24T11:42:24;19.57;;;11.70;;
13698;SDS011;6921;53.642;9.956;2022-12-24T11:44:27;18.40;;;11.37;;
13698;SDS011;6921;53.642;9.956;2022-12-24T11:46:35;19.73;;;11.77;;
13698;SDS011;6921;53.642;9.956;2022-12-24T11:48:39;21.47;;;11.90;;
13698;SDS011;6921;53.642;9.956;2022-12-24T11:50:42;19.27;;;11.27;;
13698;SDS011;6921;53.642;9.956;2022-12-24T11:52:46;17.87;;;10.77;;
13698;SDS011;6921;53.642;9.956;2022-12-24T11:55:00;18.47;;;11.67;;
13698;SDS011;6921;53.642;9.956;2022-12-24T11:57:10;18.63;;;11.43;;
13698;SDS011;6921;53.642;9.956;2022-12-24T11:59:17;18.17;;;11.40;;
13698;SDS011;6921;53.642;9.956;2022-12-24T12:01:21;20.00;;;12.13;;
13698;SDS011;6921;53.642;9.956;2022-12-24T12:03:28;18.30;;;11.67;;
13698;SDS011;6921;53.642;9.956;2022-12-24T12:05:32;19.77;;;12.27;;
13698;SDS011;6921;53.642;9.956;2022-12-24T12:07:36;18.83;;;12.33;;
13698;SDS011;6921;53.642;9.956;2022-12-24T12:09:40;18.07;;;12.07;;
13698;SDS011;6921;53.642;9.956;2022-12-24T12:11:45;20.10;;;12.37;;
13698;SDS011;6921;53.642;9.956;2022-12-24T12:13:50;18.23;;;11.63;;
13698;SDS011;6921;53.642;9.956;2022-12-24T12:15:58;21.77;;;12.47;;
13698;SDS011;6921;53.642;9.956;2022-12-24T12:18:05;21.10;;;12.03;;
13698;SDS011;6921;53.642;9.956;2022-12-24T12:20:10;20.27;;;12.37;;
13698;SDS011;6921;53.642;9.956;2022-12-24T12:22:17;21.50;;;12.90;;
13698;SDS011;6921;53.642;9.956;2022-12-24T12:24:25;21.57;;;12.97;;
13698;SDS011;6921;53.642;9.956;2022-12-24T12:26:32;19.47;;;12.63;;
13698;SDS011;6921;53.642;9.956;2022-12-24T12:28:38;21.60;;;12.80;;